sensor_id;sensor_type;location;lat;lon;timestamp;temperature;humidity
22436;DHT22;11385;50.822;4.324;2023-04-24T00:01:36;10.00;99.90
22436;DHT22;11385;50.822;4.324;2023-04-24T00:04:06;10.00;99.90
22436;DHT22;11385;50.822;4.324;2023-04-24T00:06:35;10.00;99.90
22436;DHT22;11385;50.822;4.324;2023-04-24T00:09:03;10.00;99.90
22436;DHT22;11385;50.822;4.324;2023-04-24T00:11:31;9.90;99.90
22436;DHT22;11385;50.822;4.324;2023-04-24T00:13:58;9.70;99.90
22436;DHT22;11385;50.822;4.324;2023-04-24T00:16:25;9.60;99.90
22436;DHT22;11385;50.822;4.324;2023-04-24T00:18:51;9.60;99.90
22436;DHT22;11385;50.822;4.324;2023-04-24T00:21:18;9.50;99.90
22436;DHT22;11385;50.822;4.324;2023-04-24T00:23:46;9.50;99.90
22436;DHT22;11385;50.822;4.324;2023-04-24T00:26:13;9.40;99.90
22436;DHT22;11385;50.822;4.324;2023-04-24T00:28:40;9.40;99.90
22436;DHT22;11385;50.822;4.324;2023-04-24T00:31:07;9.40;99.90
22436;DHT22;11385;50.822;4.324;2023-04-24T00:33:34;9.40;99.90
22436;DHT22;11385;50.822;4.324;2023-04-24T00:36:01;9.50;99.90
22436;DHT22;11385;50.822;4.324;2023-04-24T00:38:29;9.60;99.90
22436;DHT22;11385;50.822;4.324;2023-04-24T00:40:56;9.60;99.90
22436;DHT22;11385;50.822;4.324;2023-04-24T00:43:23;9.50;99.90
22436;DHT22;11385;50.822;4.324;2023-04-24T00:45:50;9.70;99.90
22436;DHT22;11385;50.822;4.324;2023-04-24T00:48:17;9.70;99.90
22436;DHT22;11385;50.822;4.324;2023-04-24T00:50:45;9.60;99.90
22436;DHT22;11385;50.822;4.324;2023-04-24T00:53:12;9.60;99.90
22436;DHT22;11385;50.822;4.324;2023-04-24T00:55:38;9.60;99.90
22436;DHT22;11385;50.822;4.324;2023-04-24T00:58:05;9.60;99.90
22436;DHT22;11385;50.822;4.324;2023-04-24T01:00:32;9.60;99.90
22436;DHT22;11385;50.822;4.324;2023-04-24T01:03:01;9.70;99.90
22436;DHT22;11385;50.822;4.324;2023-04-24T01:05:30;9.60;99.90
22436;DHT22;11385;50.822;4.324;2023-04-24T01:07:56;9.60;99.90
22436;DHT22;11385;50.822;4.324;2023-04-24T01:10:24;9.50;99.90
22436;DHT22;11385;50.822;4.324;2023-04-24T01:12:52;9.40;99.90
22436;DHT22;11385;50.822;4.324;2023-04-24T01:15:19;9.40;99.90
22436;DHT22;11385;50.822;4.324;2023-04-24T01:17:46;9.40;99.90
22436;DHT22;11385;50.822;4.324;2023-04-24T01:20:13;9.20;99.90
22436;DHT22;11385;50.822;4.324;2023-04-24T01:22:40;9.50;99.90
22436;DHT22;11385;50.822;4.324;2023-04-24T01:25:07;9.40;99.90
22436;DHT22;11385;50.822;4.324;2023-04-24T01:27:34;9.30;99.90
22436;DHT22;11385;50.822;4.324;2023-04-24T01:30:01;9.40;99.90
22436;DHT22;11385;50.822;4.324;2023-04-24T01:32:29;9.30;99.90
22436;DHT22;11385;50.822;4.324;2023-04-24T01:34:56;9.30;99.90
22436;DHT22;11385;50.822;4.324;2023-04-24T01:37:23;9.30;99.90
22436;DHT22;11385;50.822;4.324;2023-04-24T01:39:50;9.10;99.90
22436;DHT22;11385;50.822;4.324;2023-04-24T01:42:16;9.10;99.90
22436;DHT22;11385;50.822;4.324;2023-04-24T01:44:43;9.10;99.90
22436;DHT22;11385;50.822;4.324;2023-04-24T01:47:11;9.00;99.90
22436;DHT22;11385;50.822;4.324;2023-04-24T01:49:38;9.00;99.90
22436;DHT22;11385;50.822;4.324;2023-04-24T01:52:05;9.00;99.90
22436;DHT22;11385;50.822;4.324;2023-04-24T01:54:32;9.00;99.90
22436;DHT22;11385;50.822;4.324;2023-04-24T01:57:01;9.00;99.90
22436;DHT22;11385;50.822;4.324;2023-04-24T01:59:28;8.90;99.90
22436;DHT22;11385;50.822;4.324;2023-04-24T02:01:56;8.80;99.90
22436;DHT22;11385;50.822;4.324;2023-04-24T02:04:23;8.90;99.90
22436;DHT22;11385;50.822;4.324;2023-04-24T02:06:49;9.00;99.90
22436;DHT22;11385;50.822;4.324;2023-04-24T02:09:17;9.00;99.90
22436;DHT22;11385;50.822;4.324;2023-04-24T02:11:43;9.00;99.90
22436;DHT22;11385;50.822;4.324;2023-04-24T02:14:10;9.00;99.90
22436;DHT22;11385;50.822;4.324;2023-04-24T02:16:37;9.00;99.90
22436;DHT22;11385;50.822;4.324;2023-04-24T02:19:04;9.00;99.90
22436;DHT22;11385;50.822;4.324;2023-04-24T02:21:31;8.90;99.90
22436;DHT22;11385;50.822;4.324;2023-04-24T02:23:58;8.90;99.90
22436;DHT22;11385;50.822;4.324;2023-04-24T02:26:26;8.80;99.90
22436;DHT22;11385;50.822;4.324;2023-04-24T02:28:53;8.90;99.90
22436;DHT22;11385;50.822;4.324;2023-04-24T02:31:20;8.90;99.90
22436;DHT22;11385;50.822;4.324;2023-04-24T02:33:46;8.90;99.90
22436;DHT22;11385;50.822;4.324;2023-04-24T02:36:13;8.90;99.90
22436;DHT22;11385;50.822;4.324;2023-04-24T02:38:40;8.80;99.90
22436;DHT22;11385;50.822;4.324;2023-04-24T02:41:07;8.90;99.90
22436;DHT22;11385;50.822;4.324;2023-04-24T02:43:35;8.90;99.90
22436;DHT22;11385;50.822;4.324;2023-04-24T02:46:01;9.00;99.90
22436;DHT22;11385;50.822;4.324;2023-04-24T02:48:28;9.10;99.90
22436;DHT22;11385;50.822;4.324;2023-04-24T02:50:55;9.00;99.90
22436;DHT22;11385;50.822;4.324;2023-04-24T02:53:23;8.90;99.90
22436;DHT22;11385;50.822;4.324;2023-04-24T02:55:50;8.90;99.90
22436;DHT22;11385;50.822;4.324;2023-04-24T02:58:17;8.90;99.90
22436;DHT22;11385;50.822;4.324;2023-04-24T03:00:46;8.90;99.90
22436;DHT22;11385;50.822;4.324;2023-04-24T03:03:13;9.00;99.90
22436;DHT22;11385;50.822;4.324;2023-04-24T03:05:41;9.00;99.90
22436;DHT22;11385;50.822;4.324;2023-04-24T03:08:07;9.00;99.90
22436;DHT22;11385;50.822;4.324;2023-04-24T03:10:34;9.10;99.90
22436;DHT22;11385;50.822;4.324;2023-04-24T03:13:01;9.00;99.90
22436;DHT22;11385;50.822;4.324;2023-04-24T03:15:28;8.90;99.90
22436;DHT22;11385;50.822;4.324;2023-04-24T03:17:55;9.00;99.90
22436;DHT22;11385;50.822;4.324;2023-04-24T03:20:22;9.00;99.90
22436;DHT22;11385;50.822;4.324;2023-04-24T03:22:48;9.00;99.90
22436;DHT22;11385;50.822;4.324;2023-04-24T03:25:15;8.90;99.90
22436;DHT22;11385;50.822;4.324;2023-04-24T03:27:42;8.90;99.90
22436;DHT22;11385;50.822;4.324;2023-04-24T03:30:09;9.00;99.90
22436;DHT22;11385;50.822;4.324;2023-04-24T03:32:37;8.90;99.90
22436;DHT22;11385;50.822;4.324;2023-04-24T03:35:06;8.90;99.90
22436;DHT22;11385;50.822;4.324;2023-04-24T03:37:34;8.90;99.90
22436;DHT22;11385;50.822;4.324;2023-04-24T03:40:02;8.80;99.90
22436;DHT22;11385;50.822;4.324;2023-04-24T03:42:29;8.80;99.90
22436;DHT22;11385;50.822;4.324;2023-04-24T03:44:55;8.80;99.90
22436;DHT22;11385;50.822;4.324;2023-04-24T03:47:22;8.80;99.90
22436;DHT22;11385;50.822;4.324;2023-04-24T03:49:49;8.70;99.90
22436;DHT22;11385;50.822;4.324;2023-04-24T03:52:16;8.80;99.90
22436;DHT22;11385;50.822;4.324;2023-04-24T03:54:42;8.80;99.90
22436;DHT22;11385;50.822;4.324;2023-04-24T03:57:09;8.80;99.90
22436;DHT22;11385;50.822;4.324;2023-04-24T03:59:36;8.80;99.90
22436;DHT22;11385;50.822;4.324;2023-04-24T04:02:02;8.80;99.90
22436;DHT22;11385;50.822;4.324;2023-04-24T04:04:29;8.80;99.90
22436;DHT22;11385;50.822;4.324;2023-04-24T04:06:56;8.80;99.90
22436;DHT22;11385;50.822;4.324;2023-04-24T04:09:25;8.80;99.90
22436;DHT22;11385;50.822;4.324;2023-04-24T04:11:52;8.90;99.90
22436;DHT22;11385;50.822;4.324;2023-04-24T04:14:19;8.90;99.90
22436;DHT22;11385;50.822;4.324;2023-04-24T04:16:46;8.90;99.90
22436;DHT22;11385;50.822;4.324;2023-04-24T04:19:13;8.90;99.90
22436;DHT22;11385;50.822;4.324;2023-04-24T04:21:40;9.00;99.90
22436;DHT22;11385;50.822;4.324;2023-04-24T04:24:07;9.00;99.90
22436;DHT22;11385;50.822;4.324;2023-04-24T04:26:34;9.00;99.90
22436;DHT22;11385;50.822;4.324;2023-04-24T04:29:01;9.00;99.90
22436;DHT22;11385;50.822;4.324;2023-04-24T04:31:28;8.90;99.90
22436;DHT22;11385;50.822;4.324;2023-04-24T04:33:56;8.90;99.90
22436;DHT22;11385;50.822;4.324;2023-04-24T04:36:23;8.90;99.90
22436;DHT22;11385;50.822;4.324;2023-04-24T04:38:50;8.90;99.90
22436;DHT22;11385;50.822;4.324;2023-04-24T04:41:16;8.80;99.90
22436;DHT22;11385;50.822;4.324;2023-04-24T04:43:44;8.70;99.90
22436;DHT22;11385;50.822;4.324;2023-04-24T04:46:12;8.70;99.90
22436;DHT22;11385;50.822;4.324;2023-04-24T04:48:39;8.70;99.90
22436;DHT22;11385;50.822;4.324;2023-04-24T04:51:06;8.60;99.90
22436;DHT22;11385;50.822;4.324;2023-04-24T04:53:33;8.50;99.90
22436;DHT22;11385;50.822;4.324;2023-04-24T04:55:59;8.50;99.90
22436;DHT22;11385;50.822;4.324;2023-04-24T04:58:26;8.50;99.90
22436;DHT22;11385;50.822;4.324;2023-04-24T05:00:53;8.60;99.90
22436;DHT22;11385;50.822;4.324;2023-04-24T05:03:19;8.60;99.90
22436;DHT22;11385;50.822;4.324;2023-04-24T05:05:46;8.60;99.90
22436;DHT22;11385;50.822;4.324;2023-04-24T05:08:13;8.60;99.90
22436;DHT22;11385;50.822;4.324;2023-04-24T05:10:40;8.60;99.90
22436;DHT22;11385;50.822;4.324;2023-04-24T05:13:06;8.50;99.90
22436;DHT22;11385;50.822;4.324;2023-04-24T05:15:33;8.50;99.90
22436;DHT22;11385;50.822;4.324;2023-04-24T05:18:00;8.40;99.90
22436;DHT22;11385;50.822;4.324;2023-04-24T05:20:27;8.50;99.90
22436;DHT22;11385;50.822;4.324;2023-04-24T05:22:53;8.50;99.90
22436;DHT22;11385;50.822;4.324;2023-04-24T05:25:20;8.40;99.90
22436;DHT22;11385;50.822;4.324;2023-04-24T05:27:47;8.50;99.90
22436;DHT22;11385;50.822;4.324;2023-04-24T05:30:14;8.50;99.90
22436;DHT22;11385;50.822;4.324;2023-04-24T05:32:40;8.50;99.90
22436;DHT22;11385;50.822;4.324;2023-04-24T05:35:07;8.50;99.90
22436;DHT22;11385;50.822;4.324;2023-04-24T05:37:34;8.50;99.90
22436;DHT22;11385;50.822;4.324;2023-04-24T05:40:01;8.50;99.90
22436;DHT22;11385;50.822;4.324;2023-04-24T05:42:28;8.50;99.90
22436;DHT22;11385;50.822;4.324;2023-04-24T05:44:54;8.60;99.90
22436;DHT22;11385;50.822;4.324;2023-04-24T05:47:21;8.60;99.90
22436;DHT22;11385;50.822;4.324;2023-04-24T05:49:48;8.60;99.90
22436;DHT22;11385;50.822;4.324;2023-04-24T05:52:14;8.60;99.90
22436;DHT22;11385;50.822;4.324;2023-04-24T05:54:41;8.60;99.90
22436;DHT22;11385;50.822;4.324;2023-04-24T05:57:08;8.60;99.90
22436;DHT22;11385;50.822;4.324;2023-04-24T05:59:37;8.60;99.90
22436;DHT22;11385;50.822;4.324;2023-04-24T06:02:05;8.60;99.90
22436;DHT22;11385;50.822;4.324;2023-04-24T06:04:34;8.60;99.90
22436;DHT22;11385;50.822;4.324;2023-04-24T06:07:01;8.70;99.90
22436;DHT22;11385;50.822;4.324;2023-04-24T06:09:28;8.70;99.90
22436;DHT22;11385;50.822;4.324;2023-04-24T06:11:55;8.60;99.90
22436;DHT22;11385;50.822;4.324;2023-04-24T06:14:23;8.50;99.90
22436;DHT22;11385;50.822;4.324;2023-04-24T06:16:50;8.50;99.90
22436;DHT22;11385;50.822;4.324;2023-04-24T06:19:17;8.40;99.90
22436;DHT22;11385;50.822;4.324;2023-04-24T06:21:44;8.40;99.90
22436;DHT22;11385;50.822;4.324;2023-04-24T06:24:10;8.50;99.90
22436;DHT22;11385;50.822;4.324;2023-04-24T06:26:37;8.40;99.90
22436;DHT22;11385;50.822;4.324;2023-04-24T06:29:04;8.40;99.90
22436;DHT22;11385;50.822;4.324;2023-04-24T06:31:31;8.40;99.90
22436;DHT22;11385;50.822;4.324;2023-04-24T06:33:59;8.40;99.90
22436;DHT22;11385;50.822;4.324;2023-04-24T06:36:27;8.50;99.90
22436;DHT22;11385;50.822;4.324;2023-04-24T06:38:54;8.40;99.90
22436;DHT22;11385;50.822;4.324;2023-04-24T06:41:21;8.50;99.90
22436;DHT22;11385;50.822;4.324;2023-04-24T06:43:48;8.50;99.90
22436;DHT22;11385;50.822;4.324;2023-04-24T06:46:14;8.50;99.90
22436;DHT22;11385;50.822;4.324;2023-04-24T06:48:41;8.60;99.90
22436;DHT22;11385;50.822;4.324;2023-04-24T06:51:08;8.70;99.90
22436;DHT22;11385;50.822;4.324;2023-04-24T06:53:35;8.80;99.90
22436;DHT22;11385;50.822;4.324;2023-04-24T06:56:01;8.80;99.90
22436;DHT22;11385;50.822;4.324;2023-04-24T06:58:28;8.80;99.90
22436;DHT22;11385;50.822;4.324;2023-04-24T07:00:56;9.00;99.90
22436;DHT22;11385;50.822;4.324;2023-04-24T07:03:23;9.10;99.90
22436;DHT22;11385;50.822;4.324;2023-04-24T07:05:50;9.10;99.90
22436;DHT22;11385;50.822;4.324;2023-04-24T07:08:17;9.00;99.90
22436;DHT22;11385;50.822;4.324;2023-04-24T07:10:44;9.10;99.90
22436;DHT22;11385;50.822;4.324;2023-04-24T07:13:12;9.10;99.90
22436;DHT22;11385;50.822;4.324;2023-04-24T07:15:39;9.00;99.90
22436;DHT22;11385;50.822;4.324;2023-04-24T07:18:06;9.00;99.90
22436;DHT22;11385;50.822;4.324;2023-04-24T07:20:36;9.00;99.90
22436;DHT22;11385;50.822;4.324;2023-04-24T07:23:02;8.90;99.90
22436;DHT22;11385;50.822;4.324;2023-04-24T07:25:29;9.00;99.90
22436;DHT22;11385;50.822;4.324;2023-04-24T07:27:57;9.00;99.90
22436;DHT22;11385;50.822;4.324;2023-04-24T07:30:24;9.20;99.90
22436;DHT22;11385;50.822;4.324;2023-04-24T07:32:51;9.20;99.90
22436;DHT22;11385;50.822;4.324;2023-04-24T07:35:18;9.20;99.90
22436;DHT22;11385;50.822;4.324;2023-04-24T07:37:46;9.20;99.90
22436;DHT22;11385;50.822;4.324;2023-04-24T07:40:13;9.20;99.90
22436;DHT22;11385;50.822;4.324;2023-04-24T07:42:40;9.20;99.90
22436;DHT22;11385;50.822;4.324;2023-04-24T07:45:07;9.20;99.90
22436;DHT22;11385;50.822;4.324;2023-04-24T07:47:34;9.20;99.90
22436;DHT22;11385;50.822;4.324;2023-04-24T07:50:03;9.20;99.90
22436;DHT22;11385;50.822;4.324;2023-04-24T07:52:30;9.30;99.90
22436;DHT22;11385;50.822;4.324;2023-04-24T07:54:57;9.50;99.90
22436;DHT22;11385;50.822;4.324;2023-04-24T07:57:25;9.50;99.90
22436;DHT22;11385;50.822;4.324;2023-04-24T07:59:51;9.40;99.90
22436;DHT22;11385;50.822;4.324;2023-04-24T08:02:18;9.40;99.90
22436;DHT22;11385;50.822;4.324;2023-04-24T08:04:45;9.40;99.90
22436;DHT22;11385;50.822;4.324;2023-04-24T08:07:11;9.40;99.90
22436;DHT22;11385;50.822;4.324;2023-04-24T08:09:38;9.60;99.90
22436;DHT22;11385;50.822;4.324;2023-04-24T08:12:05;9.70;99.90
22436;DHT22;11385;50.822;4.324;2023-04-24T08:14:32;9.90;99.90
22436;DHT22;11385;50.822;4.324;2023-04-24T08:16:59;10.00;99.90
22436;DHT22;11385;50.822;4.324;2023-04-24T08:19:26;9.90;99.90
22436;DHT22;11385;50.822;4.324;2023-04-24T08:21:53;9.90;99.90
22436;DHT22;11385;50.822;4.324;2023-04-24T08:24:20;10.00;99.90
22436;DHT22;11385;50.822;4.324;2023-04-24T08:26:47;10.10;99.90
22436;DHT22;11385;50.822;4.324;2023-04-24T08:29:16;10.10;99.90
22436;DHT22;11385;50.822;4.324;2023-04-24T08:31:43;10.10;99.90
22436;DHT22;11385;50.822;4.324;2023-04-24T08:34:10;10.10;99.90
22436;DHT22;11385;50.822;4.324;2023-04-24T08:36:37;10.10;99.90
22436;DHT22;11385;50.822;4.324;2023-04-24T08:39:06;10.00;99.90
22436;DHT22;11385;50.822;4.324;2023-04-24T08:41:34;10.10;99.90
22436;DHT22;11385;50.822;4.324;2023-04-24T08:44:01;10.10;99.90
22436;DHT22;11385;50.822;4.324;2023-04-24T08:46:30;10.20;99.90
22436;DHT22;11385;50.822;4.324;2023-04-24T08:48:57;10.20;99.90
22436;DHT22;11385;50.822;4.324;2023-04-24T08:51:26;10.20;99.90
22436;DHT22;11385;50.822;4.324;2023-04-24T08:53:54;10.30;99.90
22436;DHT22;11385;50.822;4.324;2023-04-24T08:56:22;10.40;99.90
22436;DHT22;11385;50.822;4.324;2023-04-24T08:58:51;10.70;99.90
22436;DHT22;11385;50.822;4.324;2023-04-24T09:01:20;10.90;99.90
22436;DHT22;11385;50.822;4.324;2023-04-24T09:03:49;11.00;99.90
22436;DHT22;11385;50.822;4.324;2023-04-24T09:06:17;11.00;99.90
22436;DHT22;11385;50.822;4.324;2023-04-24T09:08:45;11.00;99.90
22436;DHT22;11385;50.822;4.324;2023-04-24T09:11:14;10.90;99.90
22436;DHT22;11385;50.822;4.324;2023-04-24T09:13:41;11.00;99.90
22436;DHT22;11385;50.822;4.324;2023-04-24T09:16:09;11.20;99.90
22436;DHT22;11385;50.822;4.324;2023-04-24T09:18:35;11.40;99.90
22436;DHT22;11385;50.822;4.324;2023-04-24T09:21:07;11.40;99.90
22436;DHT22;11385;50.822;4.324;2023-04-24T09:23:33;11.30;99.90
22436;DHT22;11385;50.822;4.324;2023-04-24T09:26:01;11.40;99.90
22436;DHT22;11385;50.822;4.324;2023-04-24T09:28:31;11.30;99.90
22436;DHT22;11385;50.822;4.324;2023-04-24T09:31:04;11.10;99.90
22436;DHT22;11385;50.822;4.324;2023-04-24T09:33:31;10.70;99.90
22436;DHT22;11385;50.822;4.324;2023-04-24T09:35:58;10.70;99.90
22436;DHT22;11385;50.822;4.324;2023-04-24T09:38:40;10.90;99.90
22436;DHT22;11385;50.822;4.324;2023-04-24T09:41:08;11.00;99.90
22436;DHT22;11385;50.822;4.324;2023-04-24T09:43:37;11.30;99.90
22436;DHT22;11385;50.822;4.324;2023-04-24T09:46:07;11.50;99.90
22436;DHT22;11385;50.822;4.324;2023-04-24T09:48:36;11.60;99.90
22436;DHT22;11385;50.822;4.324;2023-04-24T09:51:04;11.50;99.90
22436;DHT22;11385;50.822;4.324;2023-04-24T09:53:36;11.30;99.90
22436;DHT22;11385;50.822;4.324;2023-04-24T09:56:08;11.30;99.90
22436;DHT22;11385;50.822;4.324;2023-04-24T09:58:36;11.40;99.90
22436;DHT22;11385;50.822;4.324;2023-04-24T10:01:04;11.30;99.90
22436;DHT22;11385;50.822;4.324;2023-04-24T10:03:32;11.40;99.90
22436;DHT22;11385;50.822;4.324;2023-04-24T10:06:00;11.30;99.90
22436;DHT22;11385;50.822;4.324;2023-04-24T10:08:33;11.20;99.90
22436;DHT22;11385;50.822;4.324;2023-04-24T10:11:00;11.00;99.90
22436;DHT22;11385;50.822;4.324;2023-04-24T10:13:28;11.00;99.90
22436;DHT22;11385;50.822;4.324;2023-04-24T10:15:56;11.20;99.90
22436;DHT22;11385;50.822;4.324;2023-04-24T10:18:25;11.30;99.90
22436;DHT22;11385;50.822;4.324;2023-04-24T10:20:53;11.50;99.90
22436;DHT22;11385;50.822;4.324;2023-04-24T10:23:21;11.50;99.90
22436;DHT22;11385;50.822;4.324;2023-04-24T10:25:49;11.60;99.90
22436;DHT22;11385;50.822;4.324;2023-04-24T10:28:18;11.50;99.90
22436;DHT22;11385;50.822;4.324;2023-04-24T10:30:45;11.50;99.90
22436;DHT22;11385;50.822;4.324;2023-04-24T10:33:13;11.30;99.90
22436;DHT22;11385;50.822;4.324;2023-04-24T10:35:43;11.20;99.90
22436;DHT22;11385;50.822;4.324;2023-04-24T10:38:13;11.40;99.90
22436;DHT22;11385;50.822;4.324;2023-04-24T10:40:40;11.60;99.90
22436;DHT22;11385;50.822;4.324;2023-04-24T10:43:09;11.70;99.90
22436;DHT22;11385;50.822;4.324;2023-04-24T10:45:38;11.70;99.90
22436;DHT22;11385;50.822;4.324;2023-04-24T10:48:07;11.80;99.90
22436;DHT22;11385;50.822;4.324;2023-04-24T10:50:46;11.90;99.90
22436;DHT22;11385;50.822;4.324;2023-04-24T10:53:16;12.00;99.90
22436;DHT22;11385;50.822;4.324;2023-04-24T10:55:48;12.00;99.90
22436;DHT22;11385;50.822;4.324;2023-04-24T10:58:16;12.10;99.90
22436;DHT22;11385;50.822;4.324;2023-04-24T11:00:43;12.20;99.90
22436;DHT22;11385;50.822;4.324;2023-04-24T11:03:28;12.50;99.90
22436;DHT22;11385;50.822;4.324;2023-04-24T11:06:03;12.40;99.90
22436;DHT22;11385;50.822;4.324;2023-04-24T11:08:38;12.40;99.90
22436;DHT22;11385;50.822;4.324;2023-04-24T11:11:11;12.40;99.90
22436;DHT22;11385;50.822;4.324;2023-04-24T11:16:24;12.50;99.90
22436;DHT22;11385;50.822;4.324;2023-04-24T11:18:52;12.70;99.90
22436;DHT22;11385;50.822;4.324;2023-04-24T11:21:22;12.80;99.90
22436;DHT22;11385;50.822;4.324;2023-04-24T11:23:49;12.70;99.90
22436;DHT22;11385;50.822;4.324;2023-04-24T11:26:22;12.40;99.90
22436;DHT22;11385;50.822;4.324;2023-04-24T11:28:52;12.30;99.90
22436;DHT22;11385;50.822;4.324;2023-04-24T11:33:57;12.20;99.90
22436;DHT22;11385;50.822;4.324;2023-04-24T11:36:26;12.30;99.90
22436;DHT22;11385;50.822;4.324;2023-04-24T11:38:52;12.50;99.90
22436;DHT22;11385;50.822;4.324;2023-04-24T11:41:20;12.50;99.90
22436;DHT22;11385;50.822;4.324;2023-04-24T11:43:47;12.20;99.90
22436;DHT22;11385;50.822;4.324;2023-04-24T11:46:16;12.00;99.90
22436;DHT22;11385;50.822;4.324;2023-04-24T11:48:45;12.00;99.90
22436;DHT22;11385;50.822;4.324;2023-04-24T11:51:13;12.20;99.90
22436;DHT22;11385;50.822;4.324;2023-04-24T11:53:40;12.30;99.90
22436;DHT22;11385;50.822;4.324;2023-04-24T11:56:08;12.40;99.90
22436;DHT22;11385;50.822;4.324;2023-04-24T11:58:36;12.40;99.90
22436;DHT22;11385;50.822;4.324;2023-04-24T12:01:03;12.60;99.90
22436;DHT22;11385;50.822;4.324;2023-04-24T12:03:31;12.80;99.90
22436;DHT22;11385;50.822;4.324;2023-04-24T12:06:04;13.10;99.90
22436;DHT22;11385;50.822;4.324;2023-04-24T12:08:34;13.40;99.90
22436;DHT22;11385;50.822;4.324;2023-04-24T12:11:03;13.20;99.90
22436;DHT22;11385;50.822;4.324;2023-04-24T12:13:30;13.20;99.90
22436;DHT22;11385;50.822;4.324;2023-04-24T12:15:57;13.10;99.90
22436;DHT22;11385;50.822;4.324;2023-04-24T12:18:24;13.00;99.90
22436;DHT22;11385;50.822;4.324;2023-04-24T12:20:52;12.90;99.90
22436;DHT22;11385;50.822;4.324;2023-04-24T12:25:59;12.80;99.90
22436;DHT22;11385;50.822;4.324;2023-04-24T12:28:34;12.70;99.90
22436;DHT22;11385;50.822;4.324;2023-04-24T12:31:00;12.90;99.90
22436;DHT22;11385;50.822;4.324;2023-04-24T12:33:26;13.20;99.90
22436;DHT22;11385;50.822;4.324;2023-04-24T12:35:54;13.40;99.90
22436;DHT22;11385;50.822;4.324;2023-04-24T12:38:25;13.30;99.90
22436;DHT22;11385;50.822;4.324;2023-04-24T12:41:03;13.40;99.90
22436;DHT22;11385;50.822;4.324;2023-04-24T12:43:30;13.20;99.90
22436;DHT22;11385;50.822;4.324;2023-04-24T12:45:57;13.20;99.90
22436;DHT22;11385;50.822;4.324;2023-04-24T12:48:26;13.40;99.90
22436;DHT22;11385;50.822;4.324;2023-04-24T12:50:53;13.20;99.90
22436;DHT22;11385;50.822;4.324;2023-04-24T12:53:19;13.20;99.90
22436;DHT22;11385;50.822;4.324;2023-04-24T12:55:46;13.50;99.90
22436;DHT22;11385;50.822;4.324;2023-04-24T12:58:15;13.50;99.90
22436;DHT22;11385;50.822;4.324;2023-04-24T13:00:41;13.60;99.90
22436;DHT22;11385;50.822;4.324;2023-04-24T13:03:09;13.40;99.90
22436;DHT22;11385;50.822;4.324;2023-04-24T13:05:36;13.30;99.90
22436;DHT22;11385;50.822;4.324;2023-04-24T13:08:02;13.10;99.90
22436;DHT22;11385;50.822;4.324;2023-04-24T13:10:29;13.00;99.90
22436;DHT22;11385;50.822;4.324;2023-04-24T13:12:56;12.90;99.90
22436;DHT22;11385;50.822;4.324;2023-04-24T13:15:24;12.70;99.90
22436;DHT22;11385;50.822;4.324;2023-04-24T13:17:50;12.80;99.90
22436;DHT22;11385;50.822;4.324;2023-04-24T13:20:17;12.80;99.90
22436;DHT22;11385;50.822;4.324;2023-04-24T13:22:44;13.20;99.90
22436;DHT22;11385;50.822;4.324;2023-04-24T13:25:11;13.70;99.90
22436;DHT22;11385;50.822;4.324;2023-04-24T13:27:39;13.80;99.90
22436;DHT22;11385;50.822;4.324;2023-04-24T13:30:06;14.10;99.90
22436;DHT22;11385;50.822;4.324;2023-04-24T13:32:33;13.90;99.90
22436;DHT22;11385;50.822;4.324;2023-04-24T13:35:01;13.80;99.90
22436;DHT22;11385;50.822;4.324;2023-04-24T13:37:28;13.60;99.90
22436;DHT22;11385;50.822;4.324;2023-04-24T13:39:55;13.60;99.90
22436;DHT22;11385;50.822;4.324;2023-04-24T13:42:22;13.70;99.90
22436;DHT22;11385;50.822;4.324;2023-04-24T13:44:48;13.80;99.90
22436;DHT22;11385;50.822;4.324;2023-04-24T13:47:16;13.70;99.90
22436;DHT22;11385;50.822;4.324;2023-04-24T13:49:43;13.90;99.90
22436;DHT22;11385;50.822;4.324;2023-04-24T13:52:10;14.00;99.90
22436;DHT22;11385;50.822;4.324;2023-04-24T13:54:37;14.10;99.90
22436;DHT22;11385;50.822;4.324;2023-04-24T13:57:03;14.00;99.90
22436;DHT22;11385;50.822;4.324;2023-04-24T13:59:30;14.00;99.90
22436;DHT22;11385;50.822;4.324;2023-04-24T14:01:57;13.80;99.90
22436;DHT22;11385;50.822;4.324;2023-04-24T14:04:23;13.80;99.90
22436;DHT22;11385;50.822;4.324;2023-04-24T14:06:50;13.60;99.90
22436;DHT22;11385;50.822;4.324;2023-04-24T14:09:17;13.70;99.90
22436;DHT22;11385;50.822;4.324;2023-04-24T14:11:43;13.50;99.90
22436;DHT22;11385;50.822;4.324;2023-04-24T14:14:10;13.30;99.90
22436;DHT22;11385;50.822;4.324;2023-04-24T14:16:37;13.00;99.90
22436;DHT22;11385;50.822;4.324;2023-04-24T14:19:04;13.10;99.90
22436;DHT22;11385;50.822;4.324;2023-04-24T14:21:32;13.20;99.90
22436;DHT22;11385;50.822;4.324;2023-04-24T14:23:59;13.20;99.90
22436;DHT22;11385;50.822;4.324;2023-04-24T14:26:27;13.00;99.90
22436;DHT22;11385;50.822;4.324;2023-04-24T14:28:53;12.80;99.90
22436;DHT22;11385;50.822;4.324;2023-04-24T14:31:21;12.60;99.90
22436;DHT22;11385;50.822;4.324;2023-04-24T14:33:47;12.60;99.90
22436;DHT22;11385;50.822;4.324;2023-04-24T14:36:28;12.70;99.90
22436;DHT22;11385;50.822;4.324;2023-04-24T14:39:08;12.80;99.90
22436;DHT22;11385;50.822;4.324;2023-04-24T14:41:47;12.80;99.90
22436;DHT22;11385;50.822;4.324;2023-04-24T14:44:23;12.80;99.90
22436;DHT22;11385;50.822;4.324;2023-04-24T14:46:59;12.60;99.90
22436;DHT22;11385;50.822;4.324;2023-04-24T14:49:40;12.90;99.90
22436;DHT22;11385;50.822;4.324;2023-04-24T14:52:18;13.00;99.90
22436;DHT22;11385;50.822;4.324;2023-04-24T15:01:00;13.00;99.90
22436;DHT22;11385;50.822;4.324;2023-04-24T15:03:39;13.00;99.90
22436;DHT22;11385;50.822;4.324;2023-04-24T15:06:16;13.00;99.90
22436;DHT22;11385;50.822;4.324;2023-04-24T15:08:54;13.10;99.90
22436;DHT22;11385;50.822;4.324;2023-04-24T15:11:35;13.10;99.90
22436;DHT22;11385;50.822;4.324;2023-04-24T15:14:14;13.30;99.90
22436;DHT22;11385;50.822;4.324;2023-04-24T15:19:56;13.10;99.90
22436;DHT22;11385;50.822;4.324;2023-04-24T15:22:32;12.90;99.90
22436;DHT22;11385;50.822;4.324;2023-04-24T15:25:07;12.90;99.90
22436;DHT22;11385;50.822;4.324;2023-04-24T15:27:46;13.10;99.90
22436;DHT22;11385;50.822;4.324;2023-04-24T15:30:27;12.90;99.90
22436;DHT22;11385;50.822;4.324;2023-04-24T15:33:02;12.80;99.90
22436;DHT22;11385;50.822;4.324;2023-04-24T15:35:29;12.80;99.90
22436;DHT22;11385;50.822;4.324;2023-04-24T15:37:56;13.00;99.90
22436;DHT22;11385;50.822;4.324;2023-04-24T15:40:22;13.20;99.90
22436;DHT22;11385;50.822;4.324;2023-04-24T15:46:01;13.10;99.90
22436;DHT22;11385;50.822;4.324;2023-04-24T15:48:28;13.10;99.90
22436;DHT22;11385;50.822;4.324;2023-04-24T15:50:55;12.90;99.90
22436;DHT22;11385;50.822;4.324;2023-04-24T15:53:21;12.80;99.90
22436;DHT22;11385;50.822;4.324;2023-04-24T15:55:50;12.70;99.90
22436;DHT22;11385;50.822;4.324;2023-04-24T15:58:18;12.70;99.90
22436;DHT22;11385;50.822;4.324;2023-04-24T16:00:45;12.70;99.90
22436;DHT22;11385;50.822;4.324;2023-04-24T16:03:12;12.60;99.90
22436;DHT22;11385;50.822;4.324;2023-04-24T16:05:39;12.70;99.90